Time;durP1;ratioP1;P1;durP2;ratioP2;P2;SDS_P1;SDS_P2;PMS_P1;PMS_P2;Temp;Humidity;BMP_temperature;BMP_pressure;BME280_temperature;BME280_humidity;BME280_pressure;Samples;Min_cycle;Max_cycle;Signal;HPM_P1;HPM_P2
2022/01/30 00:00:56;;;;;;;16.17;3.20;;;7.10;99.90;;;;;;5097915;28;20171;-48
2022/01/30 00:03:22;;;;;;;17.25;3.97;;;7.10;99.90;;;;;;5116006;28;20191;-47
2022/01/30 00:05:47;;;;;;;17.08;3.70;;;7.00;99.90;;;;;;5115813;28;20153;-49
2022/01/30 00:08:13;;;;;;;14.23;4.15;;;7.00;99.90;;;;;;5115671;28;20563;-47
2022/01/30 00:10:40;;;;;;;21.20;5.32;;;7.00;99.90;;;;;;5115758;28;20165;-47
2022/01/30 00:13:09;;;;;;;14.35;3.58;;;7.00;99.90;;;;;;5115490;28;20220;-48
2022/01/30 00:15:42;;;;;;;14.80;3.60;;;6.90;99.90;;;;;;5115823;28;20171;-48
2022/01/30 00:18:18;;;;;;;17.85;4.13;;;7.00;99.90;;;;;;5115720;28;20173;-47
2022/01/30 00:20:57;;;;;;;16.17;3.65;;;6.90;99.90;;;;;;5115649;28;20188;-47
2022/01/30 00:23:26;;;;;;;13.98;3.92;;;6.90;99.90;;;;;;5115951;28;20251;-47
2022/01/30 00:25:54;;;;;;;18.02;3.88;;;6.80;99.90;;;;;;5115390;28;20157;-47
2022/01/30 00:28:22;;;;;;;16.83;4.35;;;6.80;99.90;;;;;;5115395;28;20204;-46
2022/01/30 00:30:49;;;;;;;17.33;4.63;;;6.70;99.90;;;;;;5115513;28;20169;-48
2022/01/30 00:33:14;;;;;;;22.77;4.57;;;6.70;99.90;;;;;;5115249;28;20167;-52
2022/01/30 00:35:40;;;;;;;14.77;4.05;;;6.70;99.90;;;;;;5115258;28;20239;-48
2022/01/30 00:38:11;;;;;;;19.08;3.63;;;6.70;99.90;;;;;;5115394;28;20169;-48
2022/01/30 00:40:37;;;;;;;13.60;3.22;;;6.70;99.90;;;;;;5115342;28;20217;-48
2022/01/30 00:43:04;;;;;;;12.55;3.60;;;6.70;99.90;;;;;;5115356;28;20169;-49
2022/01/30 00:45:30;;;;;;;21.83;4.70;;;6.60;99.90;;;;;;5115233;28;20638;-47
2022/01/30 00:47:55;;;;;;;9.35;2.95;;;6.60;99.90;;;;;;5115174;28;20241;-47
2022/01/30 00:50:21;;;;;;;18.27;4.07;;;6.60;99.90;;;;;;5114922;28;20628;-47
2022/01/30 00:52:52;;;;;;;17.10;4.43;;;6.50;99.90;;;;;;5114731;28;20620;-48
2022/01/30 00:55:17;;;;;;;19.17;4.35;;;6.50;99.90;;;;;;5114859;28;20532;-46
2022/01/30 00:57:43;;;;;;;15.57;2.95;;;6.50;99.90;;;;;;5114655;28;20247;-46
2022/01/30 01:00:09;;;;;;;21.50;4.57;;;6.40;99.90;;;;;;5114645;28;20169;-46
2022/01/30 01:02:34;;;;;;;14.93;3.72;;;6.40;99.90;;;;;;5114400;28;20624;-46
2022/01/30 01:05:04;;;;;;;14.40;4.07;;;6.40;99.90;;;;;;5114480;28;20161;-48
2022/01/30 01:07:32;;;;;;;18.13;3.80;;;6.40;99.90;;;;;;5114487;28;20231;-47
2022/01/30 01:10:09;;;;;;;23.85;4.13;;;6.40;99.90;;;;;;5114249;28;20168;-46
2022/01/30 01:13:01;;;;;;;23.75;4.78;;;6.40;99.90;;;;;;5114353;28;20231;-47
2022/01/30 01:23:41;;;;;;;20.48;3.38;;;6.30;99.90;;;;;;5114248;28;20160;-46
2022/01/30 01:26:06;;;;;;;16.17;4.00;;;6.20;99.90;;;;;;5114354;28;20179;-47
2022/01/30 01:28:32;;;;;;;15.00;3.83;;;6.30;99.90;;;;;;5114106;28;20180;-48
2022/01/30 01:30:59;;;;;;;13.02;3.10;;;6.20;99.90;;;;;;5114082;28;20238;-50
2022/01/30 01:33:32;;;;;;;11.52;2.63;;;6.20;99.90;;;;;;5114639;28;20526;-46
2022/01/30 01:35:57;;;;;;;17.90;3.90;;;6.20;99.90;;;;;;5113938;28;20175;-46
2022/01/30 01:38:23;;;;;;;13.20;3.40;;;6.20;99.90;;;;;;5114487;28;20173;-48
2022/01/30 01:40:53;;;;;;;13.63;3.60;;;6.20;99.90;;;;;;5113819;28;20195;-50
2022/01/30 01:43:20;;;;;;;13.55;3.35;;;6.20;99.90;;;;;;5113854;28;20157;-48
2022/01/30 01:45:48;;;;;;;18.30;3.65;;;6.20;99.90;;;;;;5113813;28;20244;-48
2022/01/30 01:48:15;;;;;;;20.60;3.30;;;6.10;99.90;;;;;;5113689;28;20204;-47
2022/01/30 01:50:50;;;;;;;21.13;4.50;;;6.10;99.90;;;;;;5114009;28;20173;-46
2022/01/30 01:53:17;;;;;;;19.45;3.72;;;6.10;99.90;;;;;;5113973;28;20260;-45
2022/01/30 01:55:44;;;;;;;12.20;3.50;;;6.00;99.90;;;;;;5113612;28;20161;-48
2022/01/30 01:58:10;;;;;;;10.63;3.22;;;6.00;99.90;;;;;;5113540;28;20210;-46
2022/01/30 02:00:36;;;;;;;25.75;5.00;;;6.00;99.90;;;;;;5113516;28;20157;-45
2022/01/30 02:03:02;;;;;;;9.48;2.88;;;6.00;99.90;;;;;;5113429;28;20523;-45
2022/01/30 02:05:33;;;;;;;11.05;3.85;;;6.00;99.90;;;;;;5113395;28;20163;-47
2022/01/30 02:10:55;;;;;;;26.63;4.13;;;5.90;99.90;;;;;;5113646;28;20221;-46
2022/01/30 02:24:29;;;;;;;17.30;3.80;;;6.00;99.90;;;;;;5113357;28;20571;-45
2022/01/30 02:26:55;;;;;;;14.07;3.25;;;6.00;99.90;;;;;;5113270;28;20234;-48
2022/01/30 02:29:21;;;;;;;16.60;4.03;;;5.90;99.90;;;;;;5113297;28;20565;-45
2022/01/30 02:31:47;;;;;;;18.30;4.43;;;5.90;99.90;;;;;;5113239;28;20966;-48
2022/01/30 02:34:12;;;;;;;10.27;2.83;;;5.90;99.90;;;;;;5112962;28;20164;-48
2022/01/30 02:36:47;;;;;;;22.58;3.85;;;5.90;99.90;;;;;;5112905;28;20164;-46
2022/01/30 02:39:13;;;;;;;27.48;4.55;;;5.90;99.90;;;;;;5113075;28;20187;-47
2022/01/30 02:41:40;;;;;;;14.30;2.92;;;5.90;99.90;;;;;;5113020;28;20165;-47
2022/01/30 02:44:15;;;;;;;11.90;3.20;;;5.90;99.90;;;;;;5112689;28;20640;-47
2022/01/30 02:46:46;;;;;;;26.08;4.53;;;5.90;99.90;;;;;;5112507;28;20608;-45
2022/01/30 02:51:53;;;;;;;22.77;3.88;;;5.90;99.90;;;;;;5112995;28;20169;-47
2022/01/30 02:54:18;;;;;;;15.70;3.88;;;5.80;99.90;;;;;;5094338;28;20176;-49
2022/01/30 02:56:44;;;;;;;18.38;4.28;;;5.80;99.90;;;;;;5112487;28;20179;-50
2022/01/30 02:59:10;;;;;;;10.48;2.90;;;5.80;99.90;;;;;;5112546;28;20165;-47
2022/01/30 03:01:37;;;;;;;35.38;3.83;;;5.70;99.90;;;;;;5112678;28;20504;-48
2022/01/30 03:04:02;;;;;;;17.85;3.88;;;5.70;99.90;;;;;;5112562;28;20234;-47
2022/01/30 03:06:28;;;;;;;21.65;3.67;;;5.70;99.90;;;;;;5112674;28;20625;-48
2022/01/30 03:08:54;;;;;;;19.33;4.32;;;5.70;99.90;;;;;;5112806;28;20157;-50
2022/01/30 03:11:21;;;;;;;20.50;3.58;;;5.70;99.90;;;;;;5112255;28;20169;-45
2022/01/30 03:13:47;;;;;;;21.35;5.15;;;5.70;99.90;;;;;;5112407;28;20188;-48
2022/01/30 03:16:13;;;;;;;16.45;3.83;;;5.60;99.90;;;;;;5112333;28;20200;-47
2022/01/30 03:18:38;;;;;;;15.38;2.97;;;5.60;99.90;;;;;;5112391;28;20168;-47
2022/01/30 03:21:04;;;;;;;18.83;3.72;;;5.60;99.90;;;;;;5112597;28;20161;-48
2022/01/30 03:23:30;;;;;;;18.05;3.75;;;5.60;99.90;;;;;;5112376;28;20251;-46
2022/01/30 03:25:58;;;;;;;11.73;3.70;;;5.60;99.90;;;;;;5114095;28;20195;-49
2022/01/30 03:28:25;;;;;;;22.55;3.90;;;5.60;99.90;;;;;;5116955;28;20212;-48
2022/01/30 03:30:55;;;;;;;14.15;3.45;;;5.50;99.90;;;;;;5116428;28;20239;-49
2022/01/30 03:33:21;;;;;;;23.38;4.13;;;5.50;99.90;;;;;;5116620;28;20168;-48
2022/01/30 03:35:46;;;;;;;24.33;3.60;;;5.50;99.90;;;;;;5116718;28;20168;-46
2022/01/30 03:38:12;;;;;;;20.13;3.50;;;5.50;99.90;;;;;;5116306;28;20164;-47
2022/01/30 03:40:38;;;;;;;21.55;4.47;;;5.40;99.90;;;;;;5116258;28;20616;-48
2022/01/30 03:43:04;;;;;;;14.57;3.42;;;5.40;99.90;;;;;;5116259;28;20206;-45
2022/01/30 03:45:29;;;;;;;30.73;4.68;;;5.40;99.90;;;;;;5116155;28;20625;-47
2022/01/30 03:47:56;;;;;;;16.70;3.63;;;5.50;99.90;;;;;;5116450;28;20207;-46
2022/01/30 03:50:22;;;;;;;16.45;3.42;;;5.50;99.90;;;;;;5116334;28;20255;-46
2022/01/30 03:52:48;;;;;;;11.50;3.13;;;5.40;99.90;;;;;;5116061;28;20255;-47
2022/01/30 03:55:13;;;;;;;14.63;2.88;;;5.40;99.90;;;;;;5116228;28;20658;-46
2022/01/30 03:57:39;;;;;;;17.17;4.57;;;5.40;99.90;;;;;;5115934;28;20573;-45
2022/01/30 04:00:06;;;;;;;10.13;3.05;;;5.40;99.90;;;;;;5097584;28;20164;-47
2022/01/30 04:02:31;;;;;;;19.65;4.10;;;5.40;99.90;;;;;;5115896;28;20168;-47
2022/01/30 04:04:57;;;;;;;17.38;4.22;;;5.40;99.90;;;;;;5115984;28;20218;-45
2022/01/30 04:07:23;;;;;;;15.82;3.20;;;5.40;99.90;;;;;;5116082;28;20291;-46
2022/01/30 04:09:49;;;;;;;23.73;4.15;;;5.30;99.90;;;;;;5115743;28;20243;-47
2022/01/30 04:12:15;;;;;;;23.83;3.38;;;5.40;99.90;;;;;;5115502;28;20239;-47
2022/01/30 04:14:41;;;;;;;30.02;4.50;;;5.40;99.90;;;;;;5115643;28;20164;-47
2022/01/30 04:17:09;;;;;;;21.52;4.10;;;5.40;99.90;;;;;;5115612;28;20220;-47
2022/01/30 04:19:35;;;;;;;13.93;2.88;;;5.40;99.90;;;;;;5115807;28;20218;-47
2022/01/30 04:22:01;;;;;;;17.38;3.22;;;5.40;99.90;;;;;;5115497;28;20161;-47
2022/01/30 04:24:26;;;;;;;24.20;3.92;;;5.30;99.90;;;;;;5115685;28;20282;-45
2022/01/30 04:26:52;;;;;;;15.93;2.92;;;5.40;99.90;;;;;;5115304;28;20200;-46
2022/01/30 04:29:17;;;;;;;19.80;4.43;;;5.30;99.90;;;;;;5115326;28;20180;-47
2022/01/30 04:31:43;;;;;;;21.02;4.22;;;5.30;99.90;;;;;;5115327;28;20168;-47
2022/01/30 04:34:10;;;;;;;14.90;4.07;;;5.30;99.90;;;;;;5115441;28;20267;-47
2022/01/30 04:36:41;;;;;;;12.70;3.28;;;5.40;99.90;;;;;;5115321;28;20624;-49
2022/01/30 04:39:28;;;;;;;21.25;4.70;;;5.30;99.90;;;;;;5114829;28;20180;-47
2022/01/30 05:06:16;;;;;;;19.75;3.95;;;5.60;99.90;;;;;;5051924;28;20543;-49
2022/01/30 05:08:42;;;;;;;15.55;3.35;;;5.60;99.90;;;;;;5051818;28;20179;-45
2022/01/30 05:11:09;;;;;;;17.42;3.58;;;5.60;99.90;;;;;;5082720;28;20175;-47
2022/01/30 05:13:39;;;;;;;26.60;4.05;;;5.60;99.90;;;;;;5114484;28;20183;-45
2022/01/30 05:16:04;;;;;;;14.68;3.67;;;5.60;99.90;;;;;;5114732;28;20175;-45
2022/01/30 05:18:31;;;;;;;20.10;3.83;;;5.60;99.90;;;;;;5096005;28;20165;-45
2022/01/30 05:20:57;;;;;;;16.77;4.38;;;5.60;99.90;;;;;;5114659;28;20172;-45
2022/01/30 05:23:23;;;;;;;18.92;4.53;;;5.60;99.90;;;;;;5114589;28;20164;-45
2022/01/30 05:25:50;;;;;;;13.65;3.38;;;5.60;99.90;;;;;;5114228;28;20183;-47
2022/01/30 05:28:17;;;;;;;16.58;3.45;;;5.50;99.90;;;;;;5114148;28;20207;-47
2022/01/30 05:30:44;;;;;;;11.07;3.05;;;5.50;99.90;;;;;;5114182;28;20157;-46
2022/01/30 05:33:11;;;;;;;13.35;3.58;;;5.50;99.90;;;;;;5114402;28;20251;-45
2022/01/30 05:35:36;;;;;;;15.27;3.92;;;5.40;99.90;;;;;;5114084;28;20211;-46
2022/01/30 05:38:04;;;;;;;13.13;2.80;;;5.40;99.90;;;;;;5114028;28;20168;-46
2022/01/30 05:40:30;;;;;;;15.38;3.30;;;5.30;99.90;;;;;;5113986;28;20169;-46
2022/01/30 05:42:56;;;;;;;15.93;3.67;;;5.30;99.90;;;;;;5114280;28;20532;-45
2022/01/30 05:45:33;;;;;;;5.63;2.50;;;5.30;99.90;;;;;;5114133;28;20168;-45
2022/01/30 05:48:03;;;;;;;20.95;3.75;;;5.30;99.90;;;;;;5113965;28;20208;-46
2022/01/30 05:50:30;;;;;;;14.10;3.65;;;5.20;99.90;;;;;;5113062;28;20173;-47
2022/01/30 05:52:55;;;;;;;19.95;3.25;;;5.20;99.90;;;;;;5114002;28;20168;-45
2022/01/30 05:55:21;;;;;;;23.95;3.45;;;5.20;99.90;;;;;;5113603;28;20242;-45
2022/01/30 05:57:47;;;;;;;19.42;3.58;;;5.10;99.90;;;;;;5113554;28;20203;-45
2022/01/30 06:00:15;;;;;;;20.85;3.35;;;5.10;99.90;;;;;;5113606;28;20161;-45
2022/01/30 06:02:45;;;;;;;21.25;3.55;;;5.10;99.90;;;;;;5113776;28;20172;-46
2022/01/30 06:05:13;;;;;;;19.63;3.75;;;5.10;99.90;;;;;;5113449;28;20624;-46
2022/01/30 06:07:47;;;;;;;14.25;3.88;;;5.10;99.90;;;;;;5113624;28;20244;-46
2022/01/30 06:10:13;;;;;;;11.43;2.80;;;5.00;99.90;;;;;;5113383;28;20224;-50
2022/01/30 06:12:39;;;;;;;15.80;3.25;;;5.00;99.90;;;;;;5113149;28;20231;-51
2022/01/30 06:15:05;;;;;;;20.77;3.60;;;5.00;99.90;;;;;;5113265;28;20172;-50
2022/01/30 06:17:30;;;;;;;29.90;4.00;;;5.00;99.90;;;;;;5113246;28;20302;-49
2022/01/30 06:19:56;;;;;;;17.90;3.38;;;5.00;99.90;;;;;;5113749;28;20243;-50
2022/01/30 06:22:21;;;;;;;19.70;4.18;;;4.90;99.90;;;;;;5113062;28;20251;-51
2022/01/30 06:24:47;;;;;;;20.58;4.72;;;4.90;99.90;;;;;;5094839;28;20170;-51
2022/01/30 06:27:12;;;;;;;21.70;4.25;;;4.90;99.90;;;;;;5112930;28;20208;-49
2022/01/30 06:29:38;;;;;;;22.27;4.72;;;4.90;99.90;;;;;;5112955;28;20167;-50
2022/01/30 06:32:04;;;;;;;18.73;4.18;;;4.90;99.90;;;;;;5094794;28;20175;-49
2022/01/30 06:34:30;;;;;;;21.65;3.53;;;4.90;99.90;;;;;;5113126;28;20175;-46
2022/01/30 06:36:56;;;;;;;12.88;3.30;;;4.90;99.90;;;;;;5113238;28;20594;-51
2022/01/30 06:39:22;;;;;;;17.95;3.08;;;4.80;99.90;;;;;;5112852;28;20168;-52
2022/01/30 06:41:47;;;;;;;21.52;4.30;;;4.90;99.90;;;;;;5112813;28;20239;-50
2022/01/30 06:44:13;;;;;;;10.23;3.38;;;4.90;99.90;;;;;;5112770;28;20161;-52
2022/01/30 06:46:38;;;;;;;19.58;4.00;;;4.90;99.90;;;;;;5112681;28;20199;-50
2022/01/30 06:49:04;;;;;;;10.82;2.88;;;4.90;99.90;;;;;;5112631;28;20234;-47
2022/01/30 06:51:30;;;;;;;15.10;3.35;;;4.80;99.90;;;;;;5112720;28;20169;-52
2022/01/30 06:53:56;;;;;;;14.65;3.50;;;4.80;99.90;;;;;;5112911;28;20192;-50
2022/01/30 06:56:21;;;;;;;13.10;4.03;;;4.90;99.90;;;;;;5112587;28;20173;-46
2022/01/30 06:58:47;;;;;;;23.05;3.33;;;4.90;99.90;;;;;;5112855;28;20173;-49
2022/01/30 07:01:12;;;;;;;18.35;3.53;;;4.90;99.90;;;;;;5112288;28;20571;-47
2022/01/30 07:03:38;;;;;;;17.48;3.15;;;4.90;99.90;;;;;;5112535;28;20276;-47
2022/01/30 07:06:03;;;;;;;16.60;2.72;;;4.90;99.90;;;;;;5112470;28;20175;-49
2022/01/30 07:08:29;;;;;;;10.88;3.25;;;4.90;99.90;;;;;;5112591;28;20672;-49
2022/01/30 07:10:54;;;;;;;13.85;3.03;;;4.90;99.90;;;;;;5112825;28;20164;-53
2022/01/30 07:13:20;;;;;;;21.67;3.90;;;4.90;99.90;;;;;;5112205;28;20226;-49
2022/01/30 07:15:46;;;;;;;13.15;4.22;;;4.90;99.90;;;;;;5112528;28;20205;-51
2022/01/30 07:18:11;;;;;;;17.23;2.92;;;4.80;99.90;;;;;;5112611;28;20217;-46
2022/01/30 07:20:37;;;;;;;12.15;3.72;;;4.80;99.90;;;;;;5112418;28;20160;-48
2022/01/30 07:23:03;;;;;;;15.18;3.25;;;4.80;99.90;;;;;;5112344;28;20612;-45
2022/01/30 07:25:28;;;;;;;10.82;2.70;;;4.80;99.90;;;;;;5112527;28;20164;-47
2022/01/30 07:27:54;;;;;;;8.93;2.25;;;4.90;99.90;;;;;;5112450;28;20204;-46
2022/01/30 07:30:19;;;;;;;10.98;3.00;;;5.00;99.90;;;;;;5112246;28;20239;-48
2022/01/30 07:32:45;;;;;;;26.48;3.47;;;4.90;99.90;;;;;;5112158;28;20167;-48
2022/01/30 07:35:10;;;;;;;21.02;3.42;;;5.00;99.90;;;;;;5112267;28;20239;-48
2022/01/30 07:37:36;;;;;;;10.75;3.15;;;5.00;99.90;;;;;;5112171;28;20525;-48
2022/01/30 07:40:03;;;;;;;17.52;3.42;;;5.10;99.90;;;;;;5112388;28;20218;-45
2022/01/30 07:42:29;;;;;;;12.65;2.60;;;5.00;99.90;;;;;;5111876;28;20251;-47
2022/01/30 07:44:55;;;;;;;11.13;2.75;;;5.00;99.90;;;;;;5112279;28;20195;-48
2022/01/30 07:47:22;;;;;;;10.73;3.20;;;5.00;99.90;;;;;;5111629;28;20204;-46
2022/01/30 07:49:51;;;;;;;15.65;3.67;;;5.00;99.90;;;;;;5112087;28;20206;-47
2022/01/30 07:52:19;;;;;;;27.02;4.22;;;5.00;99.90;;;;;;5111614;28;20742;-46
2022/01/30 07:54:44;;;;;;;12.32;2.83;;;5.00;99.90;;;;;;5111977;28;20596;-48
2022/01/30 07:57:10;;;;;;;14.93;3.30;;;5.00;99.90;;;;;;5112180;28;20192;-46
2022/01/30 07:59:35;;;;;;;11.10;2.53;;;5.10;99.90;;;;;;5111784;28;20264;-49
2022/01/30 08:02:01;;;;;;;11.82;2.63;;;5.10;99.90;;;;;;5112151;28;20259;-48
2022/01/30 08:04:28;;;;;;;10.57;3.33;;;5.10;99.90;;;;;;5112054;28;20204;-50
2022/01/30 08:06:54;;;;;;;10.60;2.47;;;5.20;99.90;;;;;;5112288;28;20568;-46
2022/01/30 08:09:20;;;;;;;17.98;4.15;;;5.10;99.90;;;;;;5111543;28;20522;-47
2022/01/30 08:11:45;;;;;;;8.40;3.35;;;5.20;99.90;;;;;;5111687;28;20221;-47
2022/01/30 08:14:12;;;;;;;20.17;3.42;;;5.20;99.90;;;;;;5114601;28;20685;-47
2022/01/30 08:16:38;;;;;;;13.60;3.63;;;5.30;99.90;;;;;;5115797;28;20168;-45
2022/01/30 08:19:03;;;;;;;11.50;3.35;;;5.30;99.90;;;;;;5115272;28;20527;-44
2022/01/30 08:21:29;;;;;;;11.60;3.10;;;5.40;99.90;;;;;;5115488;28;20173;-45
2022/01/30 08:23:54;;;;;;;18.52;2.55;;;5.40;99.90;;;;;;5115070;28;20169;-46
2022/01/30 08:26:20;;;;;;;16.02;2.88;;;5.30;99.90;;;;;;5115116;28;20165;-49
2022/01/30 08:28:45;;;;;;;10.88;3.20;;;5.30;99.90;;;;;;5115141;28;20177;-49
2022/01/30 08:31:11;;;;;;;9.93;3.25;;;5.30;99.90;;;;;;5115268;28;20255;-48
2022/01/30 08:33:36;;;;;;;14.50;3.55;;;5.40;99.90;;;;;;5114769;28;20183;-49
2022/01/30 08:36:02;;;;;;;9.55;2.85;;;5.50;99.90;;;;;;5114932;28;20187;-46
2022/01/30 08:38:28;;;;;;;21.83;4.85;;;5.50;99.90;;;;;;5114805;28;20169;-47
2022/01/30 08:40:53;;;;;;;18.10;3.70;;;5.60;99.90;;;;;;5096874;28;20213;-46
2022/01/30 08:43:21;;;;;;;12.35;2.72;;;5.80;99.90;;;;;;5114605;28;20545;-48
2022/01/30 08:45:49;;;;;;;16.67;4.22;;;5.90;99.90;;;;;;5115162;28;20176;-48
2022/01/30 08:48:14;;;;;;;13.18;2.67;;;5.80;99.90;;;;;;5114429;28;20702;-50
2022/01/30 08:50:40;;;;;;;16.05;2.88;;;5.80;99.90;;;;;;5114915;28;20164;-48
2022/01/30 08:53:06;;;;;;;16.98;3.63;;;5.90;99.90;;;;;;5114849;28;20165;-47
2022/01/30 08:55:33;;;;;;;15.13;3.13;;;6.10;99.90;;;;;;5114732;28;20171;-49
2022/01/30 08:58:00;;;;;;;20.25;3.38;;;6.10;99.90;;;;;;5115226;28;20251;-46
2022/01/30 09:00:26;;;;;;;12.40;2.83;;;6.00;99.90;;;;;;5115196;28;20249;-50
2022/01/30 09:02:51;;;;;;;12.02;2.85;;;5.90;99.90;;;;;;5114960;28;20200;-48
2022/01/30 09:05:17;;;;;;;23.08;3.83;;;5.90;99.90;;;;;;5114751;28;20520;-48
2022/01/30 09:07:42;;;;;;;18.80;3.05;;;5.90;99.90;;;;;;5114533;28;20231;-47
2022/01/30 09:10:11;;;;;;;9.30;3.50;;;6.00;99.90;;;;;;5114617;28;20157;-49
2022/01/30 09:12:37;;;;;;;22.75;3.75;;;6.00;99.90;;;;;;5114470;28;20254;-45
2022/01/30 09:15:05;;;;;;;18.52;3.83;;;6.10;99.90;;;;;;5114016;28;20243;-47
2022/01/30 09:17:30;;;;;;;21.52;3.97;;;6.20;99.90;;;;;;5114273;28;20168;-49
2022/01/30 09:19:56;;;;;;;14.45;2.35;;;6.20;99.90;;;;;;5114928;28;20168;-51
2022/01/30 09:22:22;;;;;;;9.23;2.72;;;6.20;99.90;;;;;;5114377;28;20165;-49
2022/01/30 09:24:48;;;;;;;11.88;2.83;;;6.20;99.90;;;;;;5113277;28;20687;-50
2022/01/30 09:27:14;;;;;;;15.60;2.90;;;6.20;99.90;;;;;;5114069;28;20250;-51
2022/01/30 09:29:40;;;;;;;14.57;4.15;;;6.30;99.90;;;;;;5114381;28;20168;-49
2022/01/30 09:32:07;;;;;;;17.35;3.13;;;6.20;99.90;;;;;;5114082;28;20266;-50
2022/01/30 09:34:37;;;;;;;10.63;3.65;;;6.20;99.90;;;;;;5114229;28;20557;-51
2022/01/30 09:37:04;;;;;;;17.48;3.22;;;6.20;99.90;;;;;;5113507;28;20175;-48
2022/01/30 09:39:30;;;;;;;13.15;3.83;;;6.20;99.90;;;;;;5114155;28;20242;-49
2022/01/30 09:41:56;;;;;;;7.85;2.28;;;6.30;99.90;;;;;;5114630;28;20231;-50
2022/01/30 09:44:22;;;;;;;14.52;3.97;;;6.40;99.90;;;;;;5113985;28;20156;-52
2022/01/30 09:46:50;;;;;;;21.70;3.60;;;6.30;99.90;;;;;;5095542;28;20202;-48
2022/01/30 09:49:18;;;;;;;8.85;2.67;;;6.40;99.90;;;;;;5113825;28;20263;-47
2022/01/30 09:51:44;;;;;;;12.73;3.40;;;6.50;99.90;;;;;;5113622;28;20164;-48
2022/01/30 09:54:10;;;;;;;23.40;3.85;;;6.50;99.90;;;;;;5113796;28;20225;-49
2022/01/30 09:56:35;;;;;;;13.65;3.10;;;6.60;99.90;;;;;;5113701;28;20169;-48
2022/01/30 09:59:01;;;;;;;23.20;3.95;;;6.70;99.90;;;;;;5113530;28;20252;-47
2022/01/30 10:01:33;;;;;;;15.77;4.45;;;6.80;99.90;;;;;;5114095;28;20681;-49
2022/01/30 10:03:59;;;;;;;18.40;3.60;;;6.70;99.90;;;;;;5113853;28;20249;-47
2022/01/30 10:06:31;;;;;;;13.32;3.22;;;6.70;99.90;;;;;;5113608;28;20161;-50
2022/01/30 10:08:59;;;;;;;17.58;4.22;;;6.60;99.90;;;;;;5113726;28;20218;-48
2022/01/30 10:11:46;;;;;;;17.75;3.67;;;6.90;99.90;;;;;;5113771;28;20169;-49
2022/01/30 10:14:16;;;;;;;18.17;3.60;;;7.10;99.90;;;;;;5113639;28;20169;-48
2022/01/30 10:16:47;;;;;;;17.55;3.35;;;7.00;99.90;;;;;;5113275;28;20184;-48
2022/01/30 10:19:20;;;;;;;26.75;4.22;;;6.80;99.90;;;;;;5112747;28;20160;-46
2022/01/30 10:21:47;;;;;;;12.18;3.35;;;6.90;99.90;;;;;;5113384;28;20192;-46
2022/01/30 10:24:23;;;;;;;15.68;3.20;;;7.00;99.90;;;;;;5112721;28;20247;-49
2022/01/30 10:26:51;;;;;;;18.10;3.38;;;7.20;99.90;;;;;;5113304;28;20578;-46
2022/01/30 10:29:28;;;;;;;18.60;3.50;;;7.50;99.90;;;;;;5112756;28;20187;-48
2022/01/30 10:32:10;;;;;;;16.52;3.67;;;7.30;99.90;;;;;;5112830;28;20648;-47
2022/01/30 10:34:37;;;;;;;24.15;4.25;;;7.20;99.90;;;;;;5112427;28;20177;-44
2022/01/30 10:37:16;;;;;;;17.90;4.03;;;7.20;99.90;;;;;;5112158;28;20179;-44
2022/01/30 10:39:55;;;;;;;19.85;5.13;;;7.20;99.90;;;;;;5112910;28;20506;-46
2022/01/30 10:42:38;;;;;;;8.32;2.83;;;7.20;99.90;;;;;;5112415;28;20164;-48
2022/01/30 10:45:25;;;;;;;19.45;4.20;;;7.10;99.90;;;;;;5112449;28;20639;-49
2022/01/30 10:48:17;;;;;;;18.02;3.58;;;7.10;99.90;;;;;;5109387;28;20248;-48
2022/01/30 10:50:45;;;;;;;22.05;3.75;;;7.20;99.90;;;;;;5106352;28;20173;-47
2022/01/30 10:53:25;;;;;;;16.98;3.10;;;7.40;99.90;;;;;;5112023;28;20157;-46
2022/01/30 10:55:51;;;;;;;17.13;3.67;;;7.40;99.90;;;;;;5112209;28;20157;-47
2022/01/30 10:58:21;;;;;;;21.80;5.03;;;7.50;99.90;;;;;;5112366;28;20179;-47
2022/01/30 11:00:51;;;;;;;22.17;4.53;;;7.50;99.90;;;;;;5112616;28;20241;-49
2022/01/30 11:03:35;;;;;;;18.23;5.07;;;7.40;99.90;;;;;;5111824;28;20334;-46
2022/01/30 11:06:01;;;;;;;15.90;3.50;;;7.30;99.90;;;;;;5111394;28;20160;-49
2022/01/30 11:08:30;;;;;;;13.50;3.10;;;7.10;99.90;;;;;;5106727;28;20664;-48
2022/01/30 11:11:07;;;;;;;21.05;4.28;;;7.10;99.90;;;;;;5111934;28;20169;-46
2022/01/30 11:13:44;;;;;;;22.35;4.97;;;7.10;99.90;;;;;;5112009;28;20316;-47
2022/01/30 11:18:57;;;;;;;15.70;4.00;;;7.50;99.90;;;;;;5112082;28;20179;-47
2022/01/30 11:21:24;;;;;;;25.25;5.05;;;7.60;99.90;;;;;;5112322;28;20639;-48
2022/01/30 11:23:51;;;;;;;13.98;3.83;;;7.50;99.90;;;;;;5111487;28;20285;-47
2022/01/30 11:26:17;;;;;;;21.92;3.97;;;7.70;99.90;;;;;;5112166;28;20213;-47
2022/01/30 11:28:44;;;;;;;18.25;4.35;;;7.70;99.90;;;;;;5112152;28;20620;-46
2022/01/30 11:31:12;;;;;;;31.50;5.13;;;7.70;99.90;;;;;;5112284;28;20207;-48
2022/01/30 11:33:38;;;;;;;21.98;5.15;;;7.90;99.90;;;;;;5112449;28;20200;-49
2022/01/30 11:36:05;;;;;;;22.58;4.60;;;8.00;99.90;;;;;;5112149;28;20192;-47
2022/01/30 11:38:31;;;;;;;22.77;4.90;;;8.10;99.90;;;;;;5112094;28;20161;-46
2022/01/30 11:41:10;;;;;;;25.48;4.78;;;8.10;99.90;;;;;;5112171;28;20235;-48
2022/01/30 11:43:36;;;;;;;25.52;4.55;;;7.90;99.90;;;;;;5111907;28;20165;-46
2022/01/30 11:46:12;;;;;;;31.50;5.05;;;7.80;99.90;;;;;;5111934;28;20709;-50
2022/01/30 11:48:37;;;;;;;22.50;4.60;;;7.80;99.90;;;;;;5114720;28;20274;-46
2022/01/30 11:51:03;;;;;;;24.33;5.57;;;7.80;99.90;;;;;;5116227;28;20677;-49
2022/01/30 11:53:29;;;;;;;17.98;3.92;;;7.70;99.90;;;;;;5115987;28;20192;-45
2022/01/30 11:55:59;;;;;;;26.08;5.57;;;7.80;99.90;;;;;;5116179;28;20169;-46
2022/01/30 11:58:33;;;;;;;30.75;6.00;;;7.90;99.90;;;;;;5116184;28;20165;-46
2022/01/30 12:01:00;;;;;;;18.13;5.03;;;8.10;99.90;;;;;;5115469;28;20160;-47
2022/01/30 12:03:27;;;;;;;27.65;5.03;;;8.10;99.90;;;;;;5115726;28;20193;-46
2022/01/30 12:05:55;;;;;;;25.00;5.32;;;7.10;99.90;;;;;;5115840;28;20160;-46
2022/01/30 12:08:50;;;;;;;17.45;4.57;;;8.10;99.90;;;;;;5115615;28;20211;-45
2022/01/30 12:11:34;;;;;;;15.20;3.63;;;8.20;99.90;;;;;;5115446;28;20159;-45
2022/01/30 12:14:01;;;;;;;27.48;5.32;;;8.10;99.90;;;;;;5115250;28;20160;-48
2022/01/30 12:16:45;;;;;;;33.35;4.95;;;7.90;99.90;;;;;;5115401;28;20624;-49
2022/01/30 12:19:12;;;;;;;20.00;3.35;;;7.80;99.90;;;;;;5115024;28;20180;-50
2022/01/30 12:21:38;;;;;;;21.17;4.28;;;7.70;99.90;;;;;;5115272;28;20161;-47
2022/01/30 12:24:23;;;;;;;22.58;5.05;;;7.70;99.90;;;;;;5115179;28;20169;-48
2022/01/30 12:27:02;;;;;;;22.60;3.75;;;7.80;99.90;;;;;;5115274;28;20189;-48
2022/01/30 12:29:37;;;;;;;27.30;5.45;;;7.80;99.90;;;;;;5114836;28;20580;-51
2022/01/30 12:32:20;;;;;;;24.08;3.95;;;7.70;99.90;;;;;;5115203;28;20200;-49
2022/01/30 12:35:07;;;;;;;15.93;3.83;;;7.90;99.90;;;;;;5115150;28;20274;-47
2022/01/30 12:37:37;;;;;;;19.88;4.15;;;8.10;99.90;;;;;;5114451;28;20240;-48
2022/01/30 12:40:19;;;;;;;24.45;3.47;;;8.20;99.90;;;;;;5115119;28;20204;-48
2022/01/30 12:42:45;;;;;;;18.50;4.22;;;8.20;99.90;;;;;;5115147;28;20164;-48
2022/01/30 12:45:13;;;;;;;23.73;5.72;;;8.20;99.90;;;;;;5115211;28;20214;-47
2022/01/30 12:47:47;;;;;;;21.80;4.80;;;8.30;99.90;;;;;;5115051;28;20277;-50
2022/01/30 12:50:12;;;;;;;18.85;4.75;;;8.20;99.90;;;;;;5115297;28;20172;-48
2022/01/30 12:52:39;;;;;;;25.23;4.57;;;8.30;99.90;;;;;;5115038;28;20677;-49
2022/01/30 12:55:10;;;;;;;22.08;5.50;;;8.30;99.90;;;;;;5115272;28;20519;-50
2022/01/30 12:57:36;;;;;;;18.80;3.95;;;8.40;99.90;;;;;;5114846;28;20165;-50
2022/01/30 13:00:07;;;;;;;17.85;3.85;;;8.50;99.90;;;;;;5096151;28;20559;-49
2022/01/30 13:02:39;;;;;;;20.38;4.72;;;8.60;99.90;;;;;;5114485;28;20181;-49
2022/01/30 13:05:10;;;;;;;27.13;5.00;;;8.50;99.90;;;;;;5114681;28;20172;-47
2022/01/30 13:07:36;;;;;;;16.38;4.28;;;8.40;99.90;;;;;;5114692;28;20230;-48
2022/01/30 13:10:13;;;;;;;15.73;4.38;;;8.20;99.90;;;;;;5114755;28;20257;-48
2022/01/30 13:12:42;;;;;;;23.00;4.72;;;8.00;99.90;;;;;;5096207;28;20212;-52
2022/01/30 13:15:10;;;;;;;22.05;4.57;;;7.90;99.90;;;;;;5114401;28;20172;-47
2022/01/30 13:17:36;;;;;;;23.92;4.57;;;7.80;99.90;;;;;;5114334;28;20208;-48
2022/01/30 13:20:04;;;;;;;22.77;4.20;;;7.80;99.90;;;;;;5114170;28;20169;-49
2022/01/30 13:22:37;;;;;;;24.48;5.40;;;8.00;99.90;;;;;;5114159;28;20246;-48
2022/01/30 13:25:16;;;;;;;26.17;4.70;;;8.10;99.90;;;;;;5114488;28;20220;-46
2022/01/30 13:27:45;;;;;;;28.75;5.55;;;8.20;99.90;;;;;;5114493;28;20693;-48
2022/01/30 13:30:17;;;;;;;21.98;5.20;;;8.10;99.90;;;;;;5114201;28;20164;-51
2022/01/30 13:32:43;;;;;;;27.73;7.22;;;8.20;99.90;;;;;;5114109;28;20168;-46
2022/01/30 13:35:13;;;;;;;23.10;5.45;;;8.30;99.90;;;;;;5114006;28;20168;-47
2022/01/30 13:37:41;;;;;;;20.45;5.65;;;8.30;99.90;;;;;;5095779;28;20161;-47
2022/01/30 13:40:15;;;;;;;24.23;4.93;;;8.30;99.90;;;;;;5114111;28;20176;-47
2022/01/30 13:47:59;;;;;;;26.15;7.03;;;8.20;99.90;;;;;;5113901;28;20210;-48
2022/01/30 13:50:36;;;;;;;26.85;7.85;;;8.10;99.90;;;;;;5114024;28;20168;-47